sensor_id;sensor_type;location;lat;lon;timestamp;pressure;altitude;pressure_sealevel;temperature;humidity
72570;BME280;60594;50.204;8.844;2023-04-20T00:02:21;100160.25;;;5.97;63.46
72570;BME280;60594;50.204;8.844;2023-04-20T00:04:48;100166.50;;;5.96;63.66
72570;BME280;60594;50.204;8.844;2023-04-20T00:07:14;100154.78;;;6.00;63.18
72570;BME280;60594;50.204;8.844;2023-04-20T00:09:42;100153.63;;;6.04;64.04
72570;BME280;60594;50.204;8.844;2023-04-20T00:12:08;100151.94;;;6.03;63.46
72570;BME280;60594;50.204;8.844;2023-04-20T00:14:35;100147.13;;;5.95;63.30
72570;BME280;60594;50.204;8.844;2023-04-20T00:17:01;100147.44;;;5.91;63.31
72570;BME280;60594;50.204;8.844;2023-04-20T00:19:30;100137.84;;;5.88;64.34
72570;BME280;60594;50.204;8.844;2023-04-20T00:21:58;100143.38;;;5.85;64.53
72570;BME280;60594;50.204;8.844;2023-04-20T00:24:26;100139.84;;;5.85;65.19
72570;BME280;60594;50.204;8.844;2023-04-20T00:26:52;100131.34;;;5.80;65.97
72570;BME280;60594;50.204;8.844;2023-04-20T00:29:20;100133.53;;;5.87;67.18
72570;BME280;60594;50.204;8.844;2023-04-20T00:31:47;100126.28;;;5.91;64.94
72570;BME280;60594;50.204;8.844;2023-04-20T00:34:15;100122.84;;;5.89;65.15
72570;BME280;60594;50.204;8.844;2023-04-20T00:36:41;100127.69;;;5.82;66.39
72570;BME280;60594;50.204;8.844;2023-04-20T00:39:08;100117.19;;;5.81;66.88
72570;BME280;60594;50.204;8.844;2023-04-20T00:41:35;100112.56;;;5.70;67.79
72570;BME280;60594;50.204;8.844;2023-04-20T00:44:02;100111.50;;;5.59;68.10
72570;BME280;60594;50.204;8.844;2023-04-20T00:46:29;100102.03;;;5.41;69.16
72570;BME280;60594;50.204;8.844;2023-04-20T00:48:57;100101.34;;;5.09;69.93
72570;BME280;60594;50.204;8.844;2023-04-20T00:51:24;100102.19;;;5.10;68.88
72570;BME280;60594;50.204;8.844;2023-04-20T00:53:50;100100.13;;;5.15;67.92
72570;BME280;60594;50.204;8.844;2023-04-20T00:56:17;100101.34;;;5.09;67.68
72570;BME280;60594;50.204;8.844;2023-04-20T00:58:45;100078.03;;;5.16;67.77
72570;BME280;60594;50.204;8.844;2023-04-20T01:01:15;100082.09;;;5.21;67.44
72570;BME280;60594;50.204;8.844;2023-04-20T01:03:43;100072.03;;;5.28;68.71
72570;BME280;60594;50.204;8.844;2023-04-20T01:06:12;100074.78;;;5.26;69.01
72570;BME280;60594;50.204;8.844;2023-04-20T01:08:47;100070.81;;;5.33;67.47
72570;BME280;60594;50.204;8.844;2023-04-20T01:11:14;100061.47;;;5.42;69.21
72570;BME280;60594;50.204;8.844;2023-04-20T01:13:41;100066.47;;;5.46;67.28
72570;BME280;60594;50.204;8.844;2023-04-20T01:16:08;100071.66;;;5.48;67.83
72570;BME280;60594;50.204;8.844;2023-04-20T01:18:46;100073.06;;;5.53;67.36
72570;BME280;60594;50.204;8.844;2023-04-20T01:21:15;100071.22;;;5.55;66.34
72570;BME280;60594;50.204;8.844;2023-04-20T01:23:43;100065.25;;;5.52;67.38
72570;BME280;60594;50.204;8.844;2023-04-20T01:26:11;100051.47;;;5.47;68.90
72570;BME280;60594;50.204;8.844;2023-04-20T01:28:38;100063.06;;;5.58;67.02
72570;BME280;60594;50.204;8.844;2023-04-20T01:31:07;100061.38;;;5.71;66.95
72570;BME280;60594;50.204;8.844;2023-04-20T01:33:35;100054.31;;;5.72;66.72
72570;BME280;60594;50.204;8.844;2023-04-20T01:36:03;100050.59;;;5.74;66.45
72570;BME280;60594;50.204;8.844;2023-04-20T01:38:33;100054.94;;;5.75;66.41
72570;BME280;60594;50.204;8.844;2023-04-20T01:41:03;100047.47;;;5.68;66.36
72570;BME280;60594;50.204;8.844;2023-04-20T01:43:31;100054.47;;;5.69;66.87
72570;BME280;60594;50.204;8.844;2023-04-20T01:45:59;100040.31;;;5.56;68.41
72570;BME280;60594;50.204;8.844;2023-04-20T01:48:26;100040.59;;;5.65;67.50
72570;BME280;60594;50.204;8.844;2023-04-20T01:50:53;100039.09;;;5.61;68.13
72570;BME280;60594;50.204;8.844;2023-04-20T01:53:20;100034.31;;;5.54;68.49
72570;BME280;60594;50.204;8.844;2023-04-20T01:55:49;100035.91;;;5.42;69.79
72570;BME280;60594;50.204;8.844;2023-04-20T01:58:16;100039.50;;;5.41;67.95
72570;BME280;60594;50.204;8.844;2023-04-20T02:00:43;100034.03;;;5.44;67.88
72570;BME280;60594;50.204;8.844;2023-04-20T02:03:10;100038.63;;;5.55;67.06
72570;BME280;60594;50.204;8.844;2023-04-20T02:05:36;100036.00;;;5.55;67.85
72570;BME280;60594;50.204;8.844;2023-04-20T02:08:04;100035.91;;;5.42;68.94
72570;BME280;60594;50.204;8.844;2023-04-20T02:10:31;100028.75;;;5.44;68.43
72570;BME280;60594;50.204;8.844;2023-04-20T02:12:58;100034.94;;;5.57;68.81
72570;BME280;60594;50.204;8.844;2023-04-20T02:15:24;100033.63;;;5.50;69.87
72570;BME280;60594;50.204;8.844;2023-04-20T02:17:51;100022.31;;;5.34;69.67
72570;BME280;60594;50.204;8.844;2023-04-20T02:20:19;100032.31;;;5.43;69.49
72570;BME280;60594;50.204;8.844;2023-04-20T02:22:46;100020.41;;;5.50;70.78
72570;BME280;60594;50.204;8.844;2023-04-20T02:25:13;100027.38;;;5.51;72.18
72570;BME280;60594;50.204;8.844;2023-04-20T02:27:40;100023.41;;;5.58;72.45
72570;BME280;60594;50.204;8.844;2023-04-20T02:30:07;100020.31;;;5.66;72.10
72570;BME280;60594;50.204;8.844;2023-04-20T02:32:35;100023.81;;;5.66;72.48
72570;BME280;60594;50.204;8.844;2023-04-20T02:35:02;100014.47;;;5.61;71.96
72570;BME280;60594;50.204;8.844;2023-04-20T02:37:31;100027.75;;;5.73;72.23
72570;BME280;60594;50.204;8.844;2023-04-20T02:39:57;100013.19;;;5.80;72.33
72570;BME280;60594;50.204;8.844;2023-04-20T02:42:27;100023.75;;;5.80;71.88
72570;BME280;60594;50.204;8.844;2023-04-20T02:44:55;100013.03;;;5.83;71.49
72570;BME280;60594;50.204;8.844;2023-04-20T02:47:22;100021.25;;;5.65;72.66
72570;BME280;60594;50.204;8.844;2023-04-20T02:49:50;100017.38;;;5.70;72.56
72570;BME280;60594;50.204;8.844;2023-04-20T02:52:18;100009.03;;;5.76;72.54
72570;BME280;60594;50.204;8.844;2023-04-20T02:54:44;100016.44;;;5.85;72.44
72570;BME280;60594;50.204;8.844;2023-04-20T02:57:16;100019.09;;;5.85;72.44
72570;BME280;60594;50.204;8.844;2023-04-20T02:59:43;100013.69;;;5.87;72.71
72570;BME280;60594;50.204;8.844;2023-04-20T03:02:20;100012.19;;;5.83;72.73
72570;BME280;60594;50.204;8.844;2023-04-20T03:04:47;100019.94;;;5.58;73.22
72570;BME280;60594;50.204;8.844;2023-04-20T03:07:19;100009.06;;;5.62;74.80
72570;BME280;60594;50.204;8.844;2023-04-20T03:09:47;100016.44;;;5.71;73.61
72570;BME280;60594;50.204;8.844;2023-04-20T03:12:37;100011.41;;;5.67;76.44
72570;BME280;60594;50.204;8.844;2023-04-20T03:15:09;100006.91;;;5.55;77.03
72570;BME280;60594;50.204;8.844;2023-04-20T03:18:00;100000.22;;;5.63;78.64
72570;BME280;60594;50.204;8.844;2023-04-20T03:20:26;99998.63;;;5.61;79.00
72570;BME280;60594;50.204;8.844;2023-04-20T03:22:53;100006.22;;;5.65;79.46
72570;BME280;60594;50.204;8.844;2023-04-20T03:25:23;100004.47;;;5.38;81.03
72570;BME280;60594;50.204;8.844;2023-04-20T03:27:58;99999.94;;;5.40;81.69
72570;BME280;60594;50.204;8.844;2023-04-20T03:30:26;100006.66;;;5.31;82.89
72570;BME280;60594;50.204;8.844;2023-04-20T03:32:59;99997.41;;;5.38;84.93
72570;BME280;60594;50.204;8.844;2023-04-20T03:35:26;99995.81;;;5.22;86.03
72570;BME280;60594;50.204;8.844;2023-04-20T03:37:53;100001.25;;;5.47;85.36
72570;BME280;60594;50.204;8.844;2023-04-20T03:40:20;99990.34;;;5.39;85.51
72570;BME280;60594;50.204;8.844;2023-04-20T03:42:47;99994.31;;;5.32;86.43
72570;BME280;60594;50.204;8.844;2023-04-20T03:45:14;99995.13;;;5.32;88.87
72570;BME280;60594;50.204;8.844;2023-04-20T03:47:42;99988.59;;;5.38;89.16
72570;BME280;60594;50.204;8.844;2023-04-20T03:50:11;99992.19;;;5.51;88.07
72570;BME280;60594;50.204;8.844;2023-04-20T03:52:39;99985.31;;;5.48;88.70
72570;BME280;60594;50.204;8.844;2023-04-20T03:55:06;99986.91;;;5.51;90.20
72570;BME280;60594;50.204;8.844;2023-04-20T03:57:35;99985.88;;;5.53;88.00
72570;BME280;60594;50.204;8.844;2023-04-20T04:00:03;99983.59;;;5.47;88.30
72570;BME280;60594;50.204;8.844;2023-04-20T04:02:45;99976.72;;;5.45;89.32
72570;BME280;60594;50.204;8.844;2023-04-20T04:05:12;99983.13;;;5.55;88.83
72570;BME280;60594;50.204;8.844;2023-04-20T04:07:39;99982.09;;;5.43;89.44
72570;BME280;60594;50.204;8.844;2023-04-20T04:10:06;99984.66;;;5.31;91.12
72570;BME280;60594;50.204;8.844;2023-04-20T04:12:33;99987.28;;;5.31;89.50
72570;BME280;60594;50.204;8.844;2023-04-20T04:15:01;99987.38;;;5.29;90.16
72570;BME280;60594;50.204;8.844;2023-04-20T04:17:31;99985.88;;;5.25;90.75
72570;BME280;60594;50.204;8.844;2023-04-20T04:19:59;99985.88;;;5.25;92.07
72570;BME280;60594;50.204;8.844;2023-04-20T04:22:27;99985.22;;;5.22;91.87
72570;BME280;60594;50.204;8.844;2023-04-20T04:25:13;99987.59;;;5.26;91.90
72570;BME280;60594;50.204;8.844;2023-04-20T04:27:42;99983.53;;;5.21;91.49
72570;BME280;60594;50.204;8.844;2023-04-20T04:30:09;99977.59;;;5.17;93.12
72570;BME280;60594;50.204;8.844;2023-04-20T04:32:37;99979.09;;;5.21;93.45
72570;BME280;60594;50.204;8.844;2023-04-20T04:35:04;99983.53;;;5.21;93.64
72570;BME280;60594;50.204;8.844;2023-04-20T04:37:32;99983.91;;;5.15;93.89
72570;BME280;60594;50.204;8.844;2023-04-20T04:39:58;99977.31;;;5.08;94.87
72570;BME280;60594;50.204;8.844;2023-04-20T04:42:33;99976.16;;;4.98;96.07
72570;BME280;60594;50.204;8.844;2023-04-20T04:45:02;99975.34;;;4.97;96.27
72570;BME280;60594;50.204;8.844;2023-04-20T04:47:33;99968.44;;;4.95;96.79
72570;BME280;60594;50.204;8.844;2023-04-20T04:50:02;99965.41;;;5.01;96.05
72570;BME280;60594;50.204;8.844;2023-04-20T04:52:29;99964.97;;;5.08;95.93
72570;BME280;60594;50.204;8.844;2023-04-20T04:54:56;99969.00;;;5.14;96.08
72570;BME280;60594;50.204;8.844;2023-04-20T04:57:23;99970.72;;;5.15;95.49
72570;BME280;60594;50.204;8.844;2023-04-20T04:59:51;99972.50;;;5.14;95.37
72570;BME280;60594;50.204;8.844;2023-04-20T05:02:21;99967.88;;;5.04;95.89
72570;BME280;60594;50.204;8.844;2023-04-20T05:04:52;99963.72;;;5.00;96.59
72570;BME280;60594;50.204;8.844;2023-04-20T05:07:19;99970.03;;;4.83;98.35
72570;BME280;60594;50.204;8.844;2023-04-20T05:09:46;99969.38;;;4.80;98.69
72570;BME280;60594;50.204;8.844;2023-04-20T05:12:13;99969.00;;;4.86;98.75
72570;BME280;60594;50.204;8.844;2023-04-20T05:14:39;99971.91;;;4.81;99.36
72570;BME280;60594;50.204;8.844;2023-04-20T05:17:06;99965.22;;;4.90;99.19
72570;BME280;60594;50.204;8.844;2023-04-20T05:19:33;99968.91;;;4.87;99.25
72570;BME280;60594;50.204;8.844;2023-04-20T05:22:01;99969.75;;;4.88;99.10
72570;BME280;60594;50.204;8.844;2023-04-20T05:24:27;99962.50;;;4.91;99.44
72570;BME280;60594;50.204;8.844;2023-04-20T05:26:54;99969.75;;;4.88;99.24
72570;BME280;60594;50.204;8.844;2023-04-20T05:29:21;99973.44;;;4.85;98.16
72570;BME280;60594;50.204;8.844;2023-04-20T05:31:48;99972.94;;;4.79;99.78
72570;BME280;60594;50.204;8.844;2023-04-20T05:34:15;99976.25;;;4.82;100.00
72570;BME280;60594;50.204;8.844;2023-04-20T05:36:42;99973.53;;;4.84;99.79
72570;BME280;60594;50.204;8.844;2023-04-20T05:39:08;99975.41;;;4.82;100.00
72570;BME280;60594;50.204;8.844;2023-04-20T05:41:35;99979.66;;;4.84;100.00
72570;BME280;60594;50.204;8.844;2023-04-20T05:44:02;99982.19;;;4.86;100.00
72570;BME280;60594;50.204;8.844;2023-04-20T05:46:29;99974.09;;;4.89;100.00
72570;BME280;60594;50.204;8.844;2023-04-20T05:48:55;99974.09;;;5.03;99.94
72570;BME280;60594;50.204;8.844;2023-04-20T05:51:22;99966.75;;;5.08;98.94
72570;BME280;60594;50.204;8.844;2023-04-20T05:53:50;99975.88;;;5.02;99.93
72570;BME280;60594;50.204;8.844;2023-04-20T05:56:16;99970.50;;;5.04;99.30
72570;BME280;60594;50.204;8.844;2023-04-20T05:58:43;99970.06;;;4.97;99.50
72570;BME280;60594;50.204;8.844;2023-04-20T06:01:10;99975.25;;;4.99;100.00
72570;BME280;60594;50.204;8.844;2023-04-20T06:03:37;99978.63;;;5.15;100.00
72570;BME280;60594;50.204;8.844;2023-04-20T06:06:04;99976.63;;;5.32;100.00
72570;BME280;60594;50.204;8.844;2023-04-20T06:08:32;99983.16;;;5.41;100.00
72570;BME280;60594;50.204;8.844;2023-04-20T06:10:59;99991.44;;;5.35;99.63
72570;BME280;60594;50.204;8.844;2023-04-20T06:13:25;99988.91;;;5.33;99.19
72570;BME280;60594;50.204;8.844;2023-04-20T06:15:52;99985.78;;;5.55;98.97
72570;BME280;60594;50.204;8.844;2023-04-20T06:18:19;99980.66;;;5.52;96.79
72570;BME280;60594;50.204;8.844;2023-04-20T06:20:47;99988.16;;;5.31;98.21
72570;BME280;60594;50.204;8.844;2023-04-20T06:23:13;99986.34;;;5.46;97.29
72570;BME280;60594;50.204;8.844;2023-04-20T06:25:40;99984.00;;;5.55;96.58
72570;BME280;60594;50.204;8.844;2023-04-20T06:28:08;99977.38;;;5.48;93.25
72570;BME280;60594;50.204;8.844;2023-04-20T06:30:37;99979.53;;;5.42;97.55
72570;BME280;60594;50.204;8.844;2023-04-20T06:33:05;99969.47;;;5.48;99.42
72570;BME280;60594;50.204;8.844;2023-04-20T06:35:33;99982.00;;;5.59;96.94
72570;BME280;60594;50.204;8.844;2023-04-20T06:38:00;99978.88;;;5.52;98.07
72570;BME280;60594;50.204;8.844;2023-04-20T06:40:28;99984.72;;;5.57;97.68
72570;BME280;60594;50.204;8.844;2023-04-20T06:42:56;99981.09;;;5.72;96.88
72570;BME280;60594;50.204;8.844;2023-04-20T06:45:23;99980.16;;;5.73;94.41
72570;BME280;60594;50.204;8.844;2023-04-20T06:47:50;99973.63;;;5.79;94.84
72570;BME280;60594;50.204;8.844;2023-04-20T06:50:17;99973.06;;;5.88;96.44
72570;BME280;60594;50.204;8.844;2023-04-20T06:52:44;99970.06;;;5.80;97.15
72570;BME280;60594;50.204;8.844;2023-04-20T06:55:13;99966.63;;;5.78;96.04
72570;BME280;60594;50.204;8.844;2023-04-20T06:57:40;99962.69;;;5.85;94.21
72570;BME280;60594;50.204;8.844;2023-04-20T07:00:10;99964.97;;;5.77;93.40
72570;BME280;60594;50.204;8.844;2023-04-20T07:02:45;99953.16;;;5.68;95.87
72570;BME280;60594;50.204;8.844;2023-04-20T07:05:12;99959.16;;;5.58;94.47
72570;BME280;60594;50.204;8.844;2023-04-20T07:07:39;99961.31;;;5.51;96.67
72570;BME280;60594;50.204;8.844;2023-04-20T07:10:08;99968.13;;;5.55;96.99
72570;BME280;60594;50.204;8.844;2023-04-20T07:12:35;99965.69;;;5.52;97.18
72570;BME280;60594;50.204;8.844;2023-04-20T07:15:06;99967.97;;;5.71;97.13
72570;BME280;60594;50.204;8.844;2023-04-20T07:17:34;99974.03;;;5.87;93.81
72570;BME280;60594;50.204;8.844;2023-04-20T07:20:01;99974.56;;;5.78;93.67
72570;BME280;60594;50.204;8.844;2023-04-20T07:22:33;99975.19;;;5.69;94.74
72570;BME280;60594;50.204;8.844;2023-04-20T07:25:01;99973.84;;;5.76;95.14
72570;BME280;60594;50.204;8.844;2023-04-20T07:27:34;99976.50;;;5.76;95.47
72570;BME280;60594;50.204;8.844;2023-04-20T07:30:03;99980.25;;;5.86;96.36
72570;BME280;60594;50.204;8.844;2023-04-20T07:32:32;99967.59;;;5.91;93.89
72570;BME280;60594;50.204;8.844;2023-04-20T07:34:59;99970.16;;;5.78;94.94
72570;BME280;60594;50.204;8.844;2023-04-20T07:37:26;99972.78;;;5.78;95.99
72570;BME280;60594;50.204;8.844;2023-04-20T07:39:53;99980.75;;;6.05;97.88
72570;BME280;60594;50.204;8.844;2023-04-20T07:42:20;99981.25;;;6.24;95.54
72570;BME280;60594;50.204;8.844;2023-04-20T07:44:47;99974.06;;;6.26;92.62
72570;BME280;60594;50.204;8.844;2023-04-20T07:47:14;99974.63;;;6.43;94.23
72570;BME280;60594;50.204;8.844;2023-04-20T07:49:42;99967.03;;;6.51;91.17
72570;BME280;60594;50.204;8.844;2023-04-20T07:52:09;99970.44;;;6.66;88.81
72570;BME280;60594;50.204;8.844;2023-04-20T07:54:36;99977.63;;;6.64;90.85
72570;BME280;60594;50.204;8.844;2023-04-20T07:57:03;99974.75;;;6.54;90.33
72570;BME280;60594;50.204;8.844;2023-04-20T07:59:30;99970.34;;;6.80;93.68
72570;BME280;60594;50.204;8.844;2023-04-20T08:02:00;99979.38;;;6.90;90.28
72570;BME280;60594;50.204;8.844;2023-04-20T08:04:29;99974.19;;;7.01;87.39
72570;BME280;60594;50.204;8.844;2023-04-20T08:06:55;99970.38;;;7.05;88.48
72570;BME280;60594;50.204;8.844;2023-04-20T08:09:22;99970.34;;;7.18;85.89
72570;BME280;60594;50.204;8.844;2023-04-20T08:11:49;99968.00;;;7.38;89.00
72570;BME280;60594;50.204;8.844;2023-04-20T08:14:17;99967.31;;;7.60;88.55
72570;BME280;60594;50.204;8.844;2023-04-20T08:16:43;99964.72;;;7.71;83.84
72570;BME280;60594;50.204;8.844;2023-04-20T08:19:11;99961.81;;;7.86;86.09
72570;BME280;60594;50.204;8.844;2023-04-20T08:21:38;99963.34;;;8.01;81.32
72570;BME280;60594;50.204;8.844;2023-04-20T08:24:06;99961.81;;;8.10;79.16
72570;BME280;60594;50.204;8.844;2023-04-20T08:26:34;99956.28;;;8.13;78.85
72570;BME280;60594;50.204;8.844;2023-04-20T08:29:02;99952.53;;;8.15;81.28
72570;BME280;60594;50.204;8.844;2023-04-20T08:31:29;99945.06;;;8.33;79.76
72570;BME280;60594;50.204;8.844;2023-04-20T08:33:56;99945.72;;;8.47;78.27
72570;BME280;60594;50.204;8.844;2023-04-20T08:36:23;99954.34;;;8.62;76.96
72570;BME280;60594;50.204;8.844;2023-04-20T08:38:55;99945.44;;;8.74;77.13
72570;BME280;60594;50.204;8.844;2023-04-20T08:41:24;99944.59;;;8.95;76.99
72570;BME280;60594;50.204;8.844;2023-04-20T08:43:51;99945.25;;;9.21;78.50
72570;BME280;60594;50.204;8.844;2023-04-20T08:46:18;99932.53;;;9.13;75.95
72570;BME280;60594;50.204;8.844;2023-04-20T08:48:45;99942.09;;;9.27;75.15
72570;BME280;60594;50.204;8.844;2023-04-20T08:51:14;99937.00;;;9.46;73.88
72570;BME280;60594;50.204;8.844;2023-04-20T08:53:42;99936.66;;;9.39;74.84
72570;BME280;60594;50.204;8.844;2023-04-20T08:56:09;99931.72;;;9.88;74.04
72570;BME280;60594;50.204;8.844;2023-04-20T08:58:37;99928.91;;;10.12;69.79
72570;BME280;60594;50.204;8.844;2023-04-20T09:01:11;99925.59;;;10.72;70.36
72570;BME280;60594;50.204;8.844;2023-04-20T09:03:41;99926.34;;;11.04;66.50
72570;BME280;60594;50.204;8.844;2023-04-20T09:06:15;99928.84;;;11.26;65.03
72570;BME280;60594;50.204;8.844;2023-04-20T09:08:44;99924.72;;;10.92;66.03
72570;BME280;60594;50.204;8.844;2023-04-20T09:11:24;99927.41;;;11.22;62.26
72570;BME280;60594;50.204;8.844;2023-04-20T09:14:00;99914.78;;;11.63;62.70
72570;BME280;60594;50.204;8.844;2023-04-20T09:16:27;99913.28;;;11.70;62.21
72570;BME280;60594;50.204;8.844;2023-04-20T09:18:55;99926.72;;;11.29;64.84
72570;BME280;60594;50.204;8.844;2023-04-20T09:21:24;99918.09;;;10.66;62.51
72570;BME280;60594;50.204;8.844;2023-04-20T09:24:03;99917.38;;;10.84;64.01
72570;BME280;60594;50.204;8.844;2023-04-20T09:26:35;99912.66;;;10.97;68.24
72570;BME280;60594;50.204;8.844;2023-04-20T09:29:02;99919.22;;;11.14;65.42
72570;BME280;60594;50.204;8.844;2023-04-20T09:31:30;99907.19;;;11.59;67.77
